sensor_id;sensor_type;location;lat;lon;timestamp;pressure;altitude;pressure_sealevel;temperature
20867;BMP280;10593;48.398;10.698;2022-08-26T00:01:41;95958.72;;;29.35
20867;BMP280;10593;48.398;10.698;2022-08-26T00:04:09;95957.22;;;29.32
20867;BMP280;10593;48.398;10.698;2022-08-26T00:06:35;95954.72;;;29.31
20867;BMP280;10593;48.398;10.698;2022-08-26T00:09:03;95954.84;;;29.29
20867;BMP280;10593;48.398;10.698;2022-08-26T00:11:29;95952.38;;;29.28
20867;BMP280;10593;48.398;10.698;2022-08-26T00:13:56;95945.41;;;29.27
20867;BMP280;10593;48.398;10.698;2022-08-26T00:16:23;95941.22;;;29.24
20867;BMP280;10593;48.398;10.698;2022-08-26T00:18:50;95938.72;;;29.23
20867;BMP280;10593;48.398;10.698;2022-08-26T00:21:16;95947.66;;;29.22
20867;BMP280;10593;48.398;10.698;2022-08-26T00:23:42;95949.59;;;29.20
20867;BMP280;10593;48.398;10.698;2022-08-26T00:26:07;95951.56;;;29.18
20867;BMP280;10593;48.398;10.698;2022-08-26T00:28:34;95945.59;;;29.16
20867;BMP280;10593;48.398;10.698;2022-08-26T00:31:00;95944.75;;;29.15
20867;BMP280;10593;48.398;10.698;2022-08-26T00:33:26;95953.00;;;29.12
20867;BMP280;10593;48.398;10.698;2022-08-26T00:35:52;95953.16;;;29.11
20867;BMP280;10593;48.398;10.698;2022-08-26T00:38:17;95956.75;;;29.10
20867;BMP280;10593;48.398;10.698;2022-08-26T00:40:53;95949.66;;;29.10
20867;BMP280;10593;48.398;10.698;2022-08-26T00:43:21;95949.97;;;29.07
20867;BMP280;10593;48.398;10.698;2022-08-26T00:46:15;95953.72;;;29.05
20867;BMP280;10593;48.398;10.698;2022-08-26T00:48:47;95952.19;;;29.02
20867;BMP280;10593;48.398;10.698;2022-08-26T00:51:22;95955.00;;;29.01
20867;BMP280;10593;48.398;10.698;2022-08-26T00:54:04;95956.97;;;28.99
20867;BMP280;10593;48.398;10.698;2022-08-26T00:56:37;95945.66;;;28.97
20867;BMP280;10593;48.398;10.698;2022-08-26T00:59:09;95953.59;;;28.97
20867;BMP280;10593;48.398;10.698;2022-08-26T01:01:41;95946.81;;;28.94
20867;BMP280;10593;48.398;10.698;2022-08-26T01:04:09;95948.78;;;28.92
20867;BMP280;10593;48.398;10.698;2022-08-26T01:06:34;95944.47;;;28.91
20867;BMP280;10593;48.398;10.698;2022-08-26T01:09:00;95947.09;;;28.91
20867;BMP280;10593;48.398;10.698;2022-08-26T01:11:26;95941.06;;;28.89
20867;BMP280;10593;48.398;10.698;2022-08-26T01:13:55;95942.91;;;28.89
20867;BMP280;10593;48.398;10.698;2022-08-26T01:16:23;95936.91;;;28.87
20867;BMP280;10593;48.398;10.698;2022-08-26T01:18:56;95931.75;;;28.85
20867;BMP280;10593;48.398;10.698;2022-08-26T01:21:44;95936.50;;;28.82
20867;BMP280;10593;48.398;10.698;2022-08-26T01:24:12;95941.97;;;28.80
20867;BMP280;10593;48.398;10.698;2022-08-26T01:26:40;95940.28;;;28.79
20867;BMP280;10593;48.398;10.698;2022-08-26T01:29:14;95935.97;;;28.78
20867;BMP280;10593;48.398;10.698;2022-08-26T01:31:49;95936.25;;;28.75
20867;BMP280;10593;48.398;10.698;2022-08-26T01:34:23;95939.88;;;28.74
20867;BMP280;10593;48.398;10.698;2022-08-26T01:36:55;95940.84;;;28.73
20867;BMP280;10593;48.398;10.698;2022-08-26T01:39:23;95930.56;;;28.70
20867;BMP280;10593;48.398;10.698;2022-08-26T01:41:53;95939.34;;;28.71
20867;BMP280;10593;48.398;10.698;2022-08-26T01:44:25;95942.00;;;28.71
20867;BMP280;10593;48.398;10.698;2022-08-26T01:46:53;95936.16;;;28.67
20867;BMP280;10593;48.398;10.698;2022-08-26T01:49:23;95933.63;;;28.66
20867;BMP280;10593;48.398;10.698;2022-08-26T01:51:52;95935.59;;;28.64
20867;BMP280;10593;48.398;10.698;2022-08-26T01:54:19;95933.09;;;28.62
20867;BMP280;10593;48.398;10.698;2022-08-26T01:56:46;95929.75;;;28.60
20867;BMP280;10593;48.398;10.698;2022-08-26T01:59:15;95936.88;;;28.60
20867;BMP280;10593;48.398;10.698;2022-08-26T02:01:42;95930.91;;;28.58
20867;BMP280;10593;48.398;10.698;2022-08-26T02:04:33;95933.69;;;28.56
20867;BMP280;10593;48.398;10.698;2022-08-26T02:07:04;95929.38;;;28.55
20867;BMP280;10593;48.398;10.698;2022-08-26T02:09:30;95932.31;;;28.52
20867;BMP280;10593;48.398;10.698;2022-08-26T02:12:00;95932.31;;;28.52
20867;BMP280;10593;48.398;10.698;2022-08-26T02:14:36;95936.75;;;28.52
20867;BMP280;10593;48.398;10.698;2022-08-26T02:17:03;95935.22;;;28.49
20867;BMP280;10593;48.398;10.698;2022-08-26T02:19:35;95936.19;;;28.48
20867;BMP280;10593;48.398;10.698;2022-08-26T02:22:10;95936.34;;;28.47
20867;BMP280;10593;48.398;10.698;2022-08-26T02:25:06;95941.09;;;28.43
20867;BMP280;10593;48.398;10.698;2022-08-26T02:27:35;95932.31;;;28.43
20867;BMP280;10593;48.398;10.698;2022-08-26T02:30:12;95930.63;;;28.42
20867;BMP280;10593;48.398;10.698;2022-08-26T02:32:39;95938.72;;;28.40
20867;BMP280;10593;48.398;10.698;2022-08-26T02:35:07;95942.34;;;28.39
20867;BMP280;10593;48.398;10.698;2022-08-26T02:37:34;95940.00;;;28.36
20867;BMP280;10593;48.398;10.698;2022-08-26T02:40:00;95937.34;;;28.36
20867;BMP280;10593;48.398;10.698;2022-08-26T02:42:26;95941.09;;;28.34
20867;BMP280;10593;48.398;10.698;2022-08-26T02:44:52;95934.97;;;28.33
20867;BMP280;10593;48.398;10.698;2022-08-26T02:47:18;95922.84;;;28.31
20867;BMP280;10593;48.398;10.698;2022-08-26T02:49:44;95929.00;;;28.31
20867;BMP280;10593;48.398;10.698;2022-08-26T02:52:11;95923.97;;;28.28
20867;BMP280;10593;48.398;10.698;2022-08-26T02:54:37;95933.69;;;28.28
20867;BMP280;10593;48.398;10.698;2022-08-26T02:57:03;95932.19;;;28.25
20867;BMP280;10593;48.398;10.698;2022-08-26T02:59:31;95938.44;;;28.24
20867;BMP280;10593;48.398;10.698;2022-08-26T03:01:56;95928.00;;;28.23
20867;BMP280;10593;48.398;10.698;2022-08-26T03:04:23;95934.28;;;28.22
20867;BMP280;10593;48.398;10.698;2022-08-26T03:06:49;95933.59;;;28.20
20867;BMP280;10593;48.398;10.698;2022-08-26T03:09:16;95931.06;;;28.18
20867;BMP280;10593;48.398;10.698;2022-08-26T03:11:43;95940.81;;;28.18
20867;BMP280;10593;48.398;10.698;2022-08-26T03:14:10;95925.09;;;28.17
20867;BMP280;10593;48.398;10.698;2022-08-26T03:16:37;95927.06;;;28.15
20867;BMP280;10593;48.398;10.698;2022-08-26T03:19:07;95930.66;;;28.14
20867;BMP280;10593;48.398;10.698;2022-08-26T03:21:34;95930.78;;;28.12
20867;BMP280;10593;48.398;10.698;2022-08-26T03:24:00;95920.38;;;28.11
20867;BMP280;10593;48.398;10.698;2022-08-26T03:26:26;95919.66;;;28.09
20867;BMP280;10593;48.398;10.698;2022-08-26T03:28:53;95920.66;;;28.08
20867;BMP280;10593;48.398;10.698;2022-08-26T03:31:37;95927.19;;;28.04
20867;BMP280;10593;48.398;10.698;2022-08-26T03:34:04;95925.41;;;28.04
20867;BMP280;10593;48.398;10.698;2022-08-26T03:36:30;95921.22;;;28.02
20867;BMP280;10593;48.398;10.698;2022-08-26T03:38:56;95927.47;;;28.01
20867;BMP280;10593;48.398;10.698;2022-08-26T03:41:22;95936.38;;;28.00
20867;BMP280;10593;48.398;10.698;2022-08-26T03:43:47;95932.06;;;27.99
20867;BMP280;10593;48.398;10.698;2022-08-26T03:46:16;95931.38;;;27.97
20867;BMP280;10593;48.398;10.698;2022-08-26T03:48:42;95927.03;;;27.96
20867;BMP280;10593;48.398;10.698;2022-08-26T03:51:15;95932.34;;;27.96
20867;BMP280;10593;48.398;10.698;2022-08-26T03:53:41;95921.06;;;27.94
20867;BMP280;10593;48.398;10.698;2022-08-26T03:56:08;95924.69;;;27.93
20867;BMP280;10593;48.398;10.698;2022-08-26T03:58:35;95921.22;;;27.92
20867;BMP280;10593;48.398;10.698;2022-08-26T04:01:02;95927.63;;;27.90
20867;BMP280;10593;48.398;10.698;2022-08-26T04:03:28;95925.94;;;27.89
20867;BMP280;10593;48.398;10.698;2022-08-26T04:06:12;95924.56;;;27.85
20867;BMP280;10593;48.398;10.698;2022-08-26T04:08:38;95924.56;;;27.85
20867;BMP280;10593;48.398;10.698;2022-08-26T04:11:05;95927.47;;;27.82
20867;BMP280;10593;48.398;10.698;2022-08-26T04:13:31;95928.44;;;27.81
20867;BMP280;10593;48.398;10.698;2022-08-26T04:15:57;95939.97;;;27.80
20867;BMP280;10593;48.398;10.698;2022-08-26T04:18:24;95940.97;;;27.79
20867;BMP280;10593;48.398;10.698;2022-08-26T04:20:53;95942.09;;;27.76
20867;BMP280;10593;48.398;10.698;2022-08-26T04:23:18;95937.91;;;27.74
20867;BMP280;10593;48.398;10.698;2022-08-26T04:25:44;95933.59;;;27.73
20867;BMP280;10593;48.398;10.698;2022-08-26T04:28:10;95931.91;;;27.72
20867;BMP280;10593;48.398;10.698;2022-08-26T04:30:39;95937.31;;;27.70
20867;BMP280;10593;48.398;10.698;2022-08-26T04:33:05;95933.13;;;27.68
20867;BMP280;10593;48.398;10.698;2022-08-26T04:35:32;95935.94;;;27.66
20867;BMP280;10593;48.398;10.698;2022-08-26T04:37:58;95935.06;;;27.66
20867;BMP280;10593;48.398;10.698;2022-08-26T04:40:24;95930.94;;;27.63
20867;BMP280;10593;48.398;10.698;2022-08-26T04:42:52;95936.34;;;27.62
20867;BMP280;10593;48.398;10.698;2022-08-26T04:45:18;95932.03;;;27.61
20867;BMP280;10593;48.398;10.698;2022-08-26T04:47:44;95938.28;;;27.60
20867;BMP280;10593;48.398;10.698;2022-08-26T04:50:11;95940.06;;;27.59
20867;BMP280;10593;48.398;10.698;2022-08-26T04:52:37;95937.59;;;27.58
20867;BMP280;10593;48.398;10.698;2022-08-26T04:55:04;95943.69;;;27.58
20867;BMP280;10593;48.398;10.698;2022-08-26T04:57:30;95941.22;;;27.57
20867;BMP280;10593;48.398;10.698;2022-08-26T04:59:58;95943.97;;;27.55
20867;BMP280;10593;48.398;10.698;2022-08-26T05:02:23;95935.19;;;27.55
20867;BMP280;10593;48.398;10.698;2022-08-26T05:04:49;95930.91;;;27.54
20867;BMP280;10593;48.398;10.698;2022-08-26T05:07:15;95938.81;;;27.54
20867;BMP280;10593;48.398;10.698;2022-08-26T05:09:40;95932.03;;;27.51
20867;BMP280;10593;48.398;10.698;2022-08-26T05:12:06;95940.75;;;27.52
20867;BMP280;10593;48.398;10.698;2022-08-26T05:14:32;95939.09;;;27.51
20867;BMP280;10593;48.398;10.698;2022-08-26T05:16:58;95940.06;;;27.50
20867;BMP280;10593;48.398;10.698;2022-08-26T05:19:23;95945.34;;;27.50
20867;BMP280;10593;48.398;10.698;2022-08-26T05:21:49;95949.81;;;27.49
20867;BMP280;10593;48.398;10.698;2022-08-26T05:24:16;95951.59;;;27.49
20867;BMP280;10593;48.398;10.698;2022-08-26T05:26:42;95952.56;;;27.48
20867;BMP280;10593;48.398;10.698;2022-08-26T05:29:08;95948.28;;;27.47
20867;BMP280;10593;48.398;10.698;2022-08-26T05:31:34;95943.81;;;27.47
20867;BMP280;10593;48.398;10.698;2022-08-26T05:34:02;95950.91;;;27.47
20867;BMP280;10593;48.398;10.698;2022-08-26T05:36:32;95945.75;;;27.45
20867;BMP280;10593;48.398;10.698;2022-08-26T05:38:59;95943.25;;;27.44
20867;BMP280;10593;48.398;10.698;2022-08-26T05:41:29;95949.38;;;27.44
20867;BMP280;10593;48.398;10.698;2022-08-26T05:43:57;95952.84;;;27.45
20867;BMP280;10593;48.398;10.698;2022-08-26T05:46:24;95956.47;;;27.44
20867;BMP280;10593;48.398;10.698;2022-08-26T05:48:55;95956.47;;;27.44
20867;BMP280;10593;48.398;10.698;2022-08-26T05:51:21;95961.88;;;27.42
20867;BMP280;10593;48.398;10.698;2022-08-26T05:53:47;95960.09;;;27.43
20867;BMP280;10593;48.398;10.698;2022-08-26T05:56:13;95952.28;;;27.41
20867;BMP280;10593;48.398;10.698;2022-08-26T05:58:41;95957.56;;;27.41
20867;BMP280;10593;48.398;10.698;2022-08-26T06:01:15;95961.88;;;27.42
20867;BMP280;10593;48.398;10.698;2022-08-26T06:03:45;95952.28;;;27.41
20867;BMP280;10593;48.398;10.698;2022-08-26T06:06:16;95958.53;;;27.40
20867;BMP280;10593;48.398;10.698;2022-08-26T06:08:43;95954.06;;;27.41
20867;BMP280;10593;48.398;10.698;2022-08-26T06:11:12;95956.59;;;27.42
20867;BMP280;10593;48.398;10.698;2022-08-26T06:13:39;95954.94;;;27.41
20867;BMP280;10593;48.398;10.698;2022-08-26T06:16:13;95953.09;;;27.42
20867;BMP280;10593;48.398;10.698;2022-08-26T06:18:43;95968.94;;;27.42
20867;BMP280;10593;48.398;10.698;2022-08-26T06:21:30;95967.28;;;27.41
20867;BMP280;10593;48.398;10.698;2022-08-26T06:24:01;95971.56;;;27.42
20867;BMP280;10593;48.398;10.698;2022-08-26T06:26:49;95974.22;;;27.42
20867;BMP280;10593;48.398;10.698;2022-08-26T06:29:16;95978.56;;;27.43
20867;BMP280;10593;48.398;10.698;2022-08-26T06:31:42;95973.13;;;27.44
20867;BMP280;10593;48.398;10.698;2022-08-26T06:34:08;95975.66;;;27.46
20867;BMP280;10593;48.398;10.698;2022-08-26T06:36:34;95972.03;;;27.47
20867;BMP280;10593;48.398;10.698;2022-08-26T06:39:07;95973.69;;;27.48
20867;BMP280;10593;48.398;10.698;2022-08-26T06:41:35;95982.31;;;27.50
20867;BMP280;10593;48.398;10.698;2022-08-26T06:44:03;95974.41;;;27.50
20867;BMP280;10593;48.398;10.698;2022-08-26T06:46:29;95978.69;;;27.51
20867;BMP280;10593;48.398;10.698;2022-08-26T06:48:56;95974.28;;;27.51
20867;BMP280;10593;48.398;10.698;2022-08-26T06:51:28;95985.38;;;27.55
20867;BMP280;10593;48.398;10.698;2022-08-26T06:53:55;95983.47;;;27.57
20867;BMP280;10593;48.398;10.698;2022-08-26T06:56:37;95984.97;;;27.59
20867;BMP280;10593;48.398;10.698;2022-08-26T06:59:04;95991.78;;;27.62
20867;BMP280;10593;48.398;10.698;2022-08-26T07:01:34;95988.88;;;27.65
20867;BMP280;10593;48.398;10.698;2022-08-26T07:04:04;95981.63;;;27.67
20867;BMP280;10593;48.398;10.698;2022-08-26T07:06:35;95989.44;;;27.68
20867;BMP280;10593;48.398;10.698;2022-08-26T07:09:05;95990.13;;;27.70
20867;BMP280;10593;48.398;10.698;2022-08-26T07:11:32;95987.38;;;27.72
20867;BMP280;10593;48.398;10.698;2022-08-26T07:13:59;95987.25;;;27.73
20867;BMP280;10593;48.398;10.698;2022-08-26T07:16:25;95996.72;;;27.76
20867;BMP280;10593;48.398;10.698;2022-08-26T07:18:53;95995.75;;;27.77
20867;BMP280;10593;48.398;10.698;2022-08-26T07:21:20;95995.75;;;27.77
20867;BMP280;10593;48.398;10.698;2022-08-26T07:23:47;96002.97;;;27.75
20867;BMP280;10593;48.398;10.698;2022-08-26T07:26:19;96002.84;;;27.76
20867;BMP280;10593;48.398;10.698;2022-08-26T07:28:47;95997.41;;;27.78
20867;BMP280;10593;48.398;10.698;2022-08-26T07:31:16;96004.34;;;27.79
20867;BMP280;10593;48.398;10.698;2022-08-26T07:33:43;95998.94;;;27.80
20867;BMP280;10593;48.398;10.698;2022-08-26T07:36:11;95997.81;;;27.83
20867;BMP280;10593;48.398;10.698;2022-08-26T07:38:38;95992.41;;;27.84
20867;BMP280;10593;48.398;10.698;2022-08-26T07:41:06;95997.56;;;27.86
20867;BMP280;10593;48.398;10.698;2022-08-26T07:43:34;95999.94;;;27.89
20867;BMP280;10593;48.398;10.698;2022-08-26T07:46:01;95987.41;;;27.91
20867;BMP280;10593;48.398;10.698;2022-08-26T07:48:27;95995.22;;;27.92
20867;BMP280;10593;48.398;10.698;2022-08-26T07:50:52;95998.66;;;27.93
20867;BMP280;10593;48.398;10.698;2022-08-26T07:53:19;95991.59;;;27.93
20867;BMP280;10593;48.398;10.698;2022-08-26T07:55:46;95996.88;;;27.93
20867;BMP280;10593;48.398;10.698;2022-08-26T07:58:12;95986.31;;;27.93
20867;BMP280;10593;48.398;10.698;2022-08-26T08:00:38;95993.09;;;27.96
20867;BMP280;10593;48.398;10.698;2022-08-26T08:03:05;95987.56;;;27.99
20867;BMP280;10593;48.398;10.698;2022-08-26T08:05:31;95989.22;;;28.00
20867;BMP280;10593;48.398;10.698;2022-08-26T08:07:59;95978.38;;;28.03
20867;BMP280;10593;48.398;10.698;2022-08-26T08:10:26;95983.53;;;28.04
20867;BMP280;10593;48.398;10.698;2022-08-26T08:12:54;95984.91;;;28.08
20867;BMP280;10593;48.398;10.698;2022-08-26T08:15:24;95985.59;;;28.10
20867;BMP280;10593;48.398;10.698;2022-08-26T08:17:53;95980.19;;;28.12
20867;BMP280;10593;48.398;10.698;2022-08-26T08:20:20;95983.38;;;28.15
20867;BMP280;10593;48.398;10.698;2022-08-26T08:22:47;95988.41;;;28.18
20867;BMP280;10593;48.398;10.698;2022-08-26T08:25:13;95985.47;;;28.21
20867;BMP280;10593;48.398;10.698;2022-08-26T08:27:41;95986.03;;;28.24
20867;BMP280;10593;48.398;10.698;2022-08-26T08:30:08;95982.94;;;28.29
20867;BMP280;10593;48.398;10.698;2022-08-26T08:32:35;95976.59;;;28.31
20867;BMP280;10593;48.398;10.698;2022-08-26T08:35:05;95977.97;;;28.35
20867;BMP280;10593;48.398;10.698;2022-08-26T08:37:31;95979.50;;;28.38
20867;BMP280;10593;48.398;10.698;2022-08-26T08:39:56;95979.06;;;28.42
20867;BMP280;10593;48.398;10.698;2022-08-26T08:42:50;95973.50;;;28.45
20867;BMP280;10593;48.398;10.698;2022-08-26T08:45:32;95977.53;;;28.49
20867;BMP280;10593;48.398;10.698;2022-08-26T08:48:04;95979.06;;;28.52
20867;BMP280;10593;48.398;10.698;2022-08-26T08:50:43;95979.47;;;28.57
20867;BMP280;10593;48.398;10.698;2022-08-26T08:53:33;95972.94;;;28.61
20867;BMP280;10593;48.398;10.698;2022-08-26T09:07:32;95963.50;;;28.85
20867;BMP280;10593;48.398;10.698;2022-08-26T09:10:18;95968.28;;;28.91
20867;BMP280;10593;48.398;10.698;2022-08-26T09:12:48;95966.72;;;28.98
20867;BMP280;10593;48.398;10.698;2022-08-26T09:18:26;95955.94;;;29.09
20867;BMP280;10593;48.398;10.698;2022-08-26T09:23:29;95962.72;;;29.21
20867;BMP280;10593;48.398;10.698;2022-08-26T09:26:03;95949.03;;;29.26
20867;BMP280;10593;48.398;10.698;2022-08-26T09:28:30;95953.88;;;29.30
20867;BMP280;10593;48.398;10.698;2022-08-26T09:31:21;95954.28;;;29.35
20867;BMP280;10593;48.398;10.698;2022-08-26T09:33:49;95958.16;;;29.41
20867;BMP280;10593;48.398;10.698;2022-08-26T09:36:40;95957.72;;;29.45
20867;BMP280;10593;48.398;10.698;2022-08-26T09:39:34;95946.69;;;29.50
20867;BMP280;10593;48.398;10.698;2022-08-26T09:44:31;95950.66;;;29.63
20867;BMP280;10593;48.398;10.698;2022-08-26T09:47:04;95949.91;;;29.71
20867;BMP280;10593;48.398;10.698;2022-08-26T09:49:39;95944.97;;;29.76
20867;BMP280;10593;48.398;10.698;2022-08-26T09:52:09;95940.22;;;29.79
20867;BMP280;10593;48.398;10.698;2022-08-26T09:54:37;95936.25;;;29.83
20867;BMP280;10593;48.398;10.698;2022-08-26T09:57:33;95924.41;;;29.87
20867;BMP280;10593;48.398;10.698;2022-08-26T09:59:59;95922.13;;;29.92
20867;BMP280;10593;48.398;10.698;2022-08-26T10:05:00;95910.59;;;30.01
20867;BMP280;10593;48.398;10.698;2022-08-26T10:07:50;95908.63;;;30.03
20867;BMP280;10593;48.398;10.698;2022-08-26T10:10:33;95903.91;;;30.07
20867;BMP280;10593;48.398;10.698;2022-08-26T10:16:16;95899.09;;;30.10
20867;BMP280;10593;48.398;10.698;2022-08-26T10:18:58;95891.00;;;30.12
20867;BMP280;10593;48.398;10.698;2022-08-26T10:21:34;95899.63;;;30.14
20867;BMP280;10593;48.398;10.698;2022-08-26T10:24:03;95893.19;;;30.16
20867;BMP280;10593;48.398;10.698;2022-08-26T10:26:59;95885.06;;;30.18
20867;BMP280;10593;48.398;10.698;2022-08-26T10:29:45;95879.47;;;30.21
20867;BMP280;10593;48.398;10.698;2022-08-26T10:32:56;95880.16;;;30.23
20867;BMP280;10593;48.398;10.698;2022-08-26T10:35:25;95874.66;;;30.24
20867;BMP280;10593;48.398;10.698;2022-08-26T10:38:00;95870.75;;;30.28
20867;BMP280;10593;48.398;10.698;2022-08-26T10:40:54;95874.06;;;30.30
20867;BMP280;10593;48.398;10.698;2022-08-26T10:43:28;95873.75;;;30.33
20867;BMP280;10593;48.398;10.698;2022-08-26T10:46:15;95869.13;;;30.35
20867;BMP280;10593;48.398;10.698;2022-08-26T10:48:52;95871.63;;;30.37
20867;BMP280;10593;48.398;10.698;2022-08-26T10:51:42;95863.66;;;30.37
20867;BMP280;10593;48.398;10.698;2022-08-26T10:54:37;95869.78;;;30.37
20867;BMP280;10593;48.398;10.698;2022-08-26T10:57:16;95865.31;;;30.38
20867;BMP280;10593;48.398;10.698;2022-08-26T11:03:01;95861.53;;;30.40
20867;BMP280;10593;48.398;10.698;2022-08-26T11:05:28;95858.56;;;30.43
20867;BMP280;10593;48.398;10.698;2022-08-26T11:13:16;95860.75;;;30.48
20867;BMP280;10593;48.398;10.698;2022-08-26T11:18:36;95861.56;;;30.48
20867;BMP280;10593;48.398;10.698;2022-08-26T11:24:08;95858.25;;;30.46
20867;BMP280;10593;48.398;10.698;2022-08-26T11:26:53;95859.91;;;30.47
20867;BMP280;10593;48.398;10.698;2022-08-26T11:35:01;95845.66;;;30.48
20867;BMP280;10593;48.398;10.698;2022-08-26T11:37:35;95845.66;;;30.48
20867;BMP280;10593;48.398;10.698;2022-08-26T11:40:07;95842.00;;;30.49
20867;BMP280;10593;48.398;10.698;2022-08-26T11:42:49;95838.69;;;30.47
20867;BMP280;10593;48.398;10.698;2022-08-26T11:45:43;95843.19;;;30.47
20867;BMP280;10593;48.398;10.698;2022-08-26T11:48:31;95846.81;;;30.46
20867;BMP280;10593;48.398;10.698;2022-08-26T11:51:23;95844.97;;;30.46
20867;BMP280;10593;48.398;10.698;2022-08-26T11:53:49;95839.00;;;30.44
20867;BMP280;10593;48.398;10.698;2022-08-26T11:56:28;95842.31;;;30.46
20867;BMP280;10593;48.398;10.698;2022-08-26T11:59:01;95830.72;;;30.47
20867;BMP280;10593;48.398;10.698;2022-08-26T12:01:34;95816.47;;;30.48
20867;BMP280;10593;48.398;10.698;2022-08-26T12:04:04;95823.28;;;30.51
20867;BMP280;10593;48.398;10.698;2022-08-26T12:06:36;95821.31;;;30.52
20867;BMP280;10593;48.398;10.698;2022-08-26T12:09:12;95816.00;;;30.52
20867;BMP280;10593;48.398;10.698;2022-08-26T12:11:39;95813.19;;;30.54
20867;BMP280;10593;48.398;10.698;2022-08-26T12:14:27;95818.50;;;30.54
20867;BMP280;10593;48.398;10.698;2022-08-26T12:16:53;95811.22;;;30.56
20867;BMP280;10593;48.398;10.698;2022-08-26T12:19:32;95809.22;;;30.58
20867;BMP280;10593;48.398;10.698;2022-08-26T12:22:17;95807.56;;;30.57
20867;BMP280;10593;48.398;10.698;2022-08-26T12:24:53;95805.63;;;30.59
20867;BMP280;10593;48.398;10.698;2022-08-26T12:27:24;95816.09;;;30.61
20867;BMP280;10593;48.398;10.698;2022-08-26T12:30:15;95807.28;;;30.60
20867;BMP280;10593;48.398;10.698;2022-08-26T12:32:47;95795.66;;;30.61
20867;BMP280;10593;48.398;10.698;2022-08-26T12:35:17;95800.97;;;30.61
20867;BMP280;10593;48.398;10.698;2022-08-26T12:37:49;95800.66;;;30.64
20867;BMP280;10593;48.398;10.698;2022-08-26T12:40:43;95796.34;;;30.63
20867;BMP280;10593;48.398;10.698;2022-08-26T12:43:13;95789.06;;;30.65
20867;BMP280;10593;48.398;10.698;2022-08-26T12:45:57;95785.56;;;30.64
20867;BMP280;10593;48.398;10.698;2022-08-26T12:48:32;95791.56;;;30.66
20867;BMP280;10593;48.398;10.698;2022-08-26T12:51:00;95784.59;;;30.65
20867;BMP280;10593;48.398;10.698;2022-08-26T12:53:41;95777.16;;;30.69
20867;BMP280;10593;48.398;10.698;2022-08-26T13:01:44;95771.34;;;30.73
20867;BMP280;10593;48.398;10.698;2022-08-26T13:04:40;95768.53;;;30.75
20867;BMP280;10593;48.398;10.698;2022-08-26T13:07:22;95768.19;;;30.78
20867;BMP280;10593;48.398;10.698;2022-08-26T13:09:55;95773.34;;;30.79
20867;BMP280;10593;48.398;10.698;2022-08-26T13:12:31;95764.25;;;30.82
20867;BMP280;10593;48.398;10.698;2022-08-26T13:15:00;95768.38;;;30.84
20867;BMP280;10593;48.398;10.698;2022-08-26T13:17:28;95772.41;;;30.88
20867;BMP280;10593;48.398;10.698;2022-08-26T13:19:54;95762.44;;;30.90
20867;BMP280;10593;48.398;10.698;2022-08-26T13:22:22;95755.81;;;30.94
20867;BMP280;10593;48.398;10.698;2022-08-26T13:24:52;95757.97;;;30.99
20867;BMP280;10593;48.398;10.698;2022-08-26T13:27:21;95755.00;;;31.02
20867;BMP280;10593;48.398;10.698;2022-08-26T13:29:49;95752.00;;;31.05
20867;BMP280;10593;48.398;10.698;2022-08-26T13:32:16;95749.03;;;31.08
20867;BMP280;10593;48.398;10.698;2022-08-26T13:34:49;95746.75;;;31.13
20867;BMP280;10593;48.398;10.698;2022-08-26T13:37:16;95750.91;;;31.15
20867;BMP280;10593;48.398;10.698;2022-08-26T13:39:41;95744.41;;;31.18
20867;BMP280;10593;48.398;10.698;2022-08-26T13:42:07;95739.81;;;31.20
20867;BMP280;10593;48.398;10.698;2022-08-26T13:44:33;95736.81;;;31.23
20867;BMP280;10593;48.398;10.698;2022-08-26T13:46:59;95734.81;;;31.25
20867;BMP280;10593;48.398;10.698;2022-08-26T13:49:25;95735.31;;;31.28
20867;BMP280;10593;48.398;10.698;2022-08-26T13:51:50;95726.19;;;31.31
20867;BMP280;10593;48.398;10.698;2022-08-26T13:54:16;95729.53;;;31.33
20867;BMP280;10593;48.398;10.698;2022-08-26T13:56:42;95724.88;;;31.35
20867;BMP280;10593;48.398;10.698;2022-08-26T13:59:07;95718.56;;;31.36
20867;BMP280;10593;48.398;10.698;2022-08-26T14:01:34;95728.00;;;31.38
20867;BMP280;10593;48.398;10.698;2022-08-26T14:04:00;95726.03;;;31.40
20867;BMP280;10593;48.398;10.698;2022-08-26T14:06:27;95722.19;;;31.43
20867;BMP280;10593;48.398;10.698;2022-08-26T14:08:53;95730.00;;;31.44
20867;BMP280;10593;48.398;10.698;2022-08-26T14:11:19;95733.19;;;31.48
20867;BMP280;10593;48.398;10.698;2022-08-26T14:13:45;95726.88;;;31.49
20867;BMP280;10593;48.398;10.698;2022-08-26T14:16:31;95743.13;;;31.54
20867;BMP280;10593;48.398;10.698;2022-08-26T14:18:58;95739.66;;;31.53
20867;BMP280;10593;48.398;10.698;2022-08-26T14:21:29;95734.00;;;31.56
20867;BMP280;10593;48.398;10.698;2022-08-26T14:23:55;95725.84;;;31.58
20867;BMP280;10593;48.398;10.698;2022-08-26T14:26:21;95723.88;;;31.60
20867;BMP280;10593;48.398;10.698;2022-08-26T14:28:47;95719.22;;;31.62
20867;BMP280;10593;48.398;10.698;2022-08-26T14:31:13;95717.38;;;31.62
20867;BMP280;10593;48.398;10.698;2022-08-26T14:33:39;95715.38;;;31.64
20867;BMP280;10593;48.398;10.698;2022-08-26T14:36:06;95704.63;;;31.66
20867;BMP280;10593;48.398;10.698;2022-08-26T14:38:51;95710.59;;;31.68
20867;BMP280;10593;48.398;10.698;2022-08-26T14:41:20;95696.28;;;31.69
20867;BMP280;10593;48.398;10.698;2022-08-26T14:43:51;95695.97;;;31.72
20867;BMP280;10593;48.398;10.698;2022-08-26T14:46:26;95686.00;;;31.74
20867;BMP280;10593;48.398;10.698;2022-08-26T14:48:57;95688.31;;;31.77
20867;BMP280;10593;48.398;10.698;2022-08-26T14:51:23;95683.81;;;31.77
20867;BMP280;10593;48.398;10.698;2022-08-26T14:53:50;95673.84;;;31.79
20867;BMP280;10593;48.398;10.698;2022-08-26T14:56:41;95674.69;;;31.80
20867;BMP280;10593;48.398;10.698;2022-08-26T14:59:08;95672.69;;;31.82
20867;BMP280;10593;48.398;10.698;2022-08-26T15:01:34;95671.69;;;31.83
20867;BMP280;10593;48.398;10.698;2022-08-26T15:04:01;95669.69;;;31.85
20867;BMP280;10593;48.398;10.698;2022-08-26T15:06:28;95672.19;;;31.86
20867;BMP280;10593;48.398;10.698;2022-08-26T15:08:55;95672.19;;;31.86